createdAt,value
2023-01-19T00:01:24.410Z,0.60
2023-01-19T00:03:52.749Z,0.97
2023-01-19T00:06:20.747Z,0.63
2023-01-19T00:08:49.760Z,0.53
2023-01-19T00:11:19.174Z,0.70
2023-01-19T00:13:53.632Z,0.30
2023-01-19T00:16:23.287Z,0.10
2023-01-19T00:18:53.149Z,0.37
2023-01-19T00:21:21.619Z,0.23
2023-01-19T00:23:52.452Z,0.30
2023-01-19T00:26:22.152Z,0.30
2023-01-19T00:28:52.948Z,0.30
2023-01-19T00:31:21.804Z,0.17
2023-01-19T00:33:51.498Z,0.40
2023-01-19T00:36:19.653Z,0.40
2023-01-19T00:38:47.486Z,0.33
2023-01-19T00:41:15.224Z,0.40
2023-01-19T00:43:41.958Z,0.63
2023-01-19T00:46:11.315Z,0.47
2023-01-19T00:48:39.140Z,0.40
2023-01-19T00:51:07.001Z,0.40
2023-01-19T00:53:34.773Z,0.17
2023-01-19T00:56:02.486Z,0.40
2023-01-19T00:58:30.274Z,0.40
2023-01-19T01:01:03.579Z,0.63
2023-01-19T01:03:33.948Z,0.27
2023-01-19T01:06:01.869Z,0.20
2023-01-19T01:08:29.785Z,0.20
2023-01-19T01:10:58.087Z,0.60
2023-01-19T01:13:27.918Z,0.70
2023-01-19T01:15:58.042Z,0.20
2023-01-19T01:18:26.142Z,0.60
2023-01-19T01:21:02.215Z,0.40
2023-01-19T01:23:30.001Z,0.60
2023-01-19T01:25:57.731Z,0.30
2023-01-19T01:28:25.599Z,0.20
2023-01-19T01:30:54.585Z,0.30
2023-01-19T01:33:41.394Z,0.30
2023-01-19T01:36:12.603Z,0.70
2023-01-19T01:38:40.536Z,0.30
2023-01-19T01:41:08.814Z,0.10
2023-01-19T01:43:48.845Z,0.20
2023-01-19T01:46:18.023Z,0.20
2023-01-19T01:48:52.349Z,0.20
2023-01-19T01:51:26.394Z,0.37
2023-01-19T01:54:03.134Z,0.43
2023-01-19T01:56:35.094Z,0.40
2023-01-19T01:59:06.691Z,0.60
2023-01-19T02:01:53.009Z,0.43
2023-01-19T02:04:21.728Z,0.50
2023-01-19T02:07:09.235Z,0.40
2023-01-19T02:09:56.091Z,0.57
2023-01-19T02:12:42.026Z,0.50
2023-01-19T02:15:17.424Z,0.37
2023-01-19T02:17:45.459Z,0.40
2023-01-19T02:20:14.393Z,0.13
2023-01-19T02:22:49.506Z,0.30
2023-01-19T02:25:20.449Z,0.50
2023-01-19T02:27:48.625Z,0.20
2023-01-19T02:30:18.288Z,0.27
2023-01-19T02:32:46.423Z,0.10
2023-01-19T02:35:14.546Z,0.20
2023-01-19T02:37:45.474Z,0.20
2023-01-19T02:40:16.546Z,0.20
2023-01-19T02:42:49.625Z,0.40
2023-01-19T02:45:23.042Z,0.30
2023-01-19T02:47:53.765Z,0.30
2023-01-19T02:50:51.054Z,0.30
2023-01-19T02:53:34.131Z,0.23
2023-01-19T02:56:11.907Z,0.20
2023-01-19T02:58:49.258Z,0.33
2023-01-19T03:01:26.205Z,0.20
2023-01-19T03:03:57.672Z,0.30
2023-01-19T03:06:38.808Z,0.40
2023-01-19T03:09:14.028Z,0.30
2023-01-19T03:11:48.760Z,0.43
2023-01-19T03:14:24.257Z,0.37
2023-01-19T03:16:56.042Z,0.70
2023-01-19T03:19:27.243Z,1.03
2023-01-19T03:21:59.031Z,0.70
2023-01-19T03:24:32.474Z,0.50
2023-01-19T03:27:05.003Z,0.93
2023-01-19T03:29:36.186Z,0.93
2023-01-19T03:32:09.062Z,0.63
2023-01-19T03:34:39.320Z,0.50
2023-01-19T03:37:11.469Z,0.60
2023-01-19T03:39:39.305Z,0.40
2023-01-19T03:42:10.880Z,0.67
2023-01-19T03:44:41.335Z,0.70
2023-01-19T03:47:12.270Z,0.73
2023-01-19T03:49:43.016Z,1.00
2023-01-19T03:52:11.251Z,0.90
2023-01-19T03:54:39.119Z,1.30
2023-01-19T03:57:07.159Z,1.07
2023-01-19T03:59:35.263Z,1.17
2023-01-19T04:02:04.556Z,1.10
2023-01-19T04:04:32.325Z,1.20
2023-01-19T04:07:01.326Z,1.43
2023-01-19T04:09:29.345Z,1.10
2023-01-19T04:11:57.237Z,0.93
2023-01-19T04:14:24.998Z,1.20
2023-01-19T04:16:52.845Z,2.00
2023-01-19T04:19:21.923Z,1.03
2023-01-19T04:21:50.756Z,1.50
2023-01-19T04:24:18.677Z,1.10
2023-01-19T04:26:46.407Z,1.03
2023-01-19T04:29:14.394Z,0.87
2023-01-19T04:31:42.179Z,0.70
2023-01-19T04:34:10.215Z,1.20
2023-01-19T04:36:39.292Z,0.60
2023-01-19T04:39:08.921Z,0.83
2023-01-19T04:41:36.704Z,0.80
2023-01-19T04:44:05.984Z,1.30
2023-01-19T04:46:33.777Z,1.23
2023-01-19T04:49:01.585Z,1.03
2023-01-19T04:51:29.602Z,0.90
2023-01-19T04:53:58.819Z,0.93
2023-01-19T04:56:26.729Z,1.27
2023-01-19T04:58:54.514Z,1.13
2023-01-19T05:01:22.409Z,1.10
2023-01-19T05:03:50.203Z,1.00
2023-01-19T05:06:17.989Z,1.27
2023-01-19T05:08:45.823Z,1.20
2023-01-19T05:11:14.936Z,2.07
2023-01-19T05:13:42.710Z,1.33
2023-01-19T05:16:10.639Z,1.40
2023-01-19T05:18:38.568Z,1.47
2023-01-19T05:21:07.308Z,1.50
2023-01-19T05:23:35.572Z,1.40
2023-01-19T05:26:04.387Z,1.67
2023-01-19T05:28:37.451Z,1.10
2023-01-19T05:31:05.349Z,1.10
2023-01-19T05:33:33.199Z,0.90
2023-01-19T05:36:01.822Z,1.27
2023-01-19T05:38:35.385Z,1.20
2023-01-19T05:41:03.688Z,1.33
2023-01-19T05:43:32.852Z,1.27
2023-01-19T05:46:00.607Z,1.00
2023-01-19T05:48:28.459Z,0.87
2023-01-19T05:50:59.023Z,1.10
2023-01-19T05:53:27.174Z,1.47
2023-01-19T05:55:55.028Z,0.80
2023-01-19T05:58:22.827Z,1.33
2023-01-19T06:00:52.056Z,1.37
2023-01-19T06:03:19.861Z,1.40
2023-01-19T06:05:47.932Z,1.20
2023-01-19T06:08:15.756Z,1.40
2023-01-19T06:10:43.575Z,1.77
2023-01-19T06:13:11.349Z,1.00
2023-01-19T06:15:39.038Z,1.27
2023-01-19T06:18:08.227Z,1.20
2023-01-19T06:20:36.777Z,1.60
2023-01-19T06:23:04.965Z,1.87
2023-01-19T06:25:32.771Z,1.53
2023-01-19T06:28:00.505Z,1.27
2023-01-19T06:30:29.084Z,1.10
2023-01-19T06:32:56.832Z,1.67
2023-01-19T06:35:26.165Z,1.33
2023-01-19T06:37:54.075Z,1.27
2023-01-19T06:40:21.794Z,0.90
2023-01-19T06:42:49.930Z,1.37
2023-01-19T06:45:17.749Z,1.13
2023-01-19T06:47:48.430Z,1.20
2023-01-19T06:50:16.927Z,0.87
2023-01-19T06:52:46.047Z,1.60
2023-01-19T06:55:14.649Z,1.60
2023-01-19T06:57:42.354Z,1.60
2023-01-19T07:00:11.987Z,1.17
2023-01-19T07:02:43.380Z,0.93
2023-01-19T07:05:11.695Z,1.37
2023-01-19T07:07:39.909Z,1.20
2023-01-19T07:10:11.768Z,1.13
2023-01-19T07:12:39.631Z,1.20
2023-01-19T07:15:09.765Z,1.07
2023-01-19T07:17:37.586Z,1.40
2023-01-19T07:20:06.140Z,1.20
2023-01-19T07:22:33.893Z,1.30
2023-01-19T07:25:04.382Z,1.20
2023-01-19T07:27:33.642Z,0.93
2023-01-19T07:30:01.795Z,1.00
2023-01-19T07:32:29.850Z,1.17
2023-01-19T07:34:57.571Z,1.10
2023-01-19T07:37:25.356Z,1.17
2023-01-19T07:39:53.127Z,1.20
2023-01-19T07:42:20.882Z,1.00
2023-01-19T07:44:50.014Z,1.47
2023-01-19T07:47:17.923Z,1.03
2023-01-19T07:49:45.929Z,1.23
2023-01-19T07:52:13.766Z,1.57
2023-01-19T07:54:41.586Z,1.40
2023-01-19T07:57:09.319Z,1.00
2023-01-19T07:59:37.176Z,0.97
2023-01-19T08:02:06.699Z,1.10
2023-01-19T08:04:34.627Z,1.20
2023-01-19T08:07:03.755Z,1.23
2023-01-19T08:09:31.569Z,0.90
2023-01-19T08:11:59.327Z,0.70
2023-01-19T08:14:27.087Z,1.00
2023-01-19T08:16:54.812Z,1.00
2023-01-19T08:19:24.138Z,1.30
2023-01-19T08:21:51.988Z,0.60
2023-01-19T08:24:22.872Z,1.13
2023-01-19T08:26:50.960Z,0.80
2023-01-19T08:29:18.644Z,0.57
2023-01-19T08:31:46.757Z,0.90
2023-01-19T08:34:14.557Z,0.80
2023-01-19T08:36:43.729Z,0.80
2023-01-19T08:39:12.449Z,0.83
2023-01-19T08:41:40.184Z,1.20
2023-01-19T08:44:08.004Z,0.63
2023-01-19T08:46:36.018Z,0.83
2023-01-19T08:49:03.780Z,1.10
2023-01-19T08:51:31.558Z,0.80
2023-01-19T08:54:00.781Z,0.63
2023-01-19T08:56:28.538Z,0.90
2023-01-19T08:59:08.115Z,0.80
2023-01-19T09:01:37.693Z,0.67
2023-01-19T09:04:06.217Z,1.27
2023-01-19T09:06:34.175Z,0.90
2023-01-19T09:09:03.340Z,1.00
2023-01-19T09:11:31.889Z,0.90
2023-01-19T09:13:59.861Z,1.03
2023-01-19T09:16:29.321Z,0.80
2023-01-19T09:18:57.050Z,1.07
2023-01-19T09:21:24.894Z,0.80
2023-01-19T09:23:54.693Z,1.00
2023-01-19T09:26:27.078Z,0.90
2023-01-19T09:28:54.879Z,0.60
2023-01-19T09:31:22.780Z,0.67
2023-01-19T09:33:50.689Z,0.90
2023-01-19T09:36:21.330Z,0.67
2023-01-19T09:38:49.174Z,1.00
2023-01-19T09:41:22.311Z,0.70
2023-01-19T09:43:56.719Z,0.60
2023-01-19T09:46:31.716Z,0.40
2023-01-19T09:49:04.827Z,0.93
2023-01-19T09:51:35.905Z,0.37
2023-01-19T09:54:14.098Z,0.67
2023-01-19T09:56:42.409Z,0.70
2023-01-19T09:59:21.170Z,0.60
2023-01-19T10:02:07.727Z,0.80
2023-01-19T10:04:40.663Z,0.53
2023-01-19T10:07:14.901Z,0.60
2023-01-19T10:09:57.554Z,0.40
2023-01-19T10:12:42.353Z,0.60
2023-01-19T10:15:22.410Z,0.30
2023-01-19T10:18:02.175Z,0.80
2023-01-19T10:20:37.043Z,0.50
2023-01-19T10:23:16.366Z,0.37
2023-01-19T10:25:44.456Z,0.43
2023-01-19T10:28:14.610Z,0.40
2023-01-19T10:30:46.079Z,0.23
2023-01-19T10:33:15.396Z,0.57
2023-01-19T10:35:45.068Z,0.60
2023-01-19T10:38:15.602Z,0.33
2023-01-19T10:40:49.974Z,0.70
2023-01-19T10:43:37.996Z,0.33
2023-01-19T10:46:22.292Z,0.50
2023-01-19T10:48:52.125Z,0.30
2023-01-19T10:51:20.320Z,0.33
2023-01-19T10:53:58.169Z,0.40
2023-01-19T10:56:29.253Z,0.57
2023-01-19T10:58:57.410Z,0.50
2023-01-19T11:01:28.549Z,0.77
2023-01-19T11:04:00.083Z,0.60
2023-01-19T11:06:31.168Z,0.23
2023-01-19T11:09:16.796Z,0.50
2023-01-19T11:11:47.417Z,0.53
2023-01-19T11:14:18.417Z,0.80
2023-01-19T11:16:51.053Z,0.60
2023-01-19T11:19:23.142Z,0.60
2023-01-19T11:21:51.111Z,0.60
2023-01-19T11:24:19.332Z,0.50
2023-01-19T11:26:49.411Z,0.50
2023-01-19T11:29:20.988Z,0.30
2023-01-19T11:31:51.642Z,0.50
2023-01-19T11:34:32.645Z,0.70
2023-01-19T11:37:02.185Z,0.60
2023-01-19T11:39:31.688Z,0.53
2023-01-19T11:42:02.504Z,0.70
2023-01-19T11:44:33.675Z,0.60
2023-01-19T11:47:06.733Z,0.80
2023-01-19T11:49:44.875Z,0.47
2023-01-19T11:52:21.669Z,0.70
2023-01-19T11:54:58.364Z,0.50
2023-01-19T11:57:26.599Z,0.60
2023-01-19T11:59:55.376Z,0.57
2023-01-19T12:02:29.696Z,0.60
2023-01-19T12:05:02.644Z,0.50
2023-01-19T12:07:33.985Z,0.40
2023-01-19T12:10:14.054Z,0.50
2023-01-19T12:12:42.871Z,0.63
2023-01-19T12:15:22.311Z,0.40
2023-01-19T12:17:53.505Z,0.40
2023-01-19T12:20:28.131Z,0.90
2023-01-19T12:23:03.999Z,0.60
2023-01-19T12:25:43.124Z,0.67
2023-01-19T12:28:15.185Z,0.70
2023-01-19T12:30:43.154Z,0.80
2023-01-19T12:33:37.563Z,0.83
2023-01-19T12:36:10.992Z,0.60
2023-01-19T12:38:52.274Z,0.57
2023-01-19T12:41:27.009Z,0.53
2023-01-19T12:44:24.207Z,0.60
2023-01-19T12:46:58.039Z,0.57
2023-01-19T12:49:30.780Z,0.60
2023-01-19T12:52:15.235Z,0.60
2023-01-19T12:54:51.292Z,0.53
2023-01-19T12:57:23.433Z,0.73
2023-01-19T12:59:59.293Z,0.60
2023-01-19T13:02:52.342Z,0.40
2023-01-19T13:05:47.965Z,0.80
2023-01-19T13:08:17.814Z,0.90
2023-01-19T13:11:19.761Z,0.47
2023-01-19T13:14:29.762Z,0.40
2023-01-19T13:17:03.315Z,0.80
2023-01-19T13:19:43.900Z,0.57
2023-01-19T13:23:03.574Z,0.50
2023-01-19T13:25:35.812Z,0.40
2023-01-19T13:28:11.998Z,0.50
2023-01-19T13:30:52.257Z,0.60
2023-01-19T13:33:24.064Z,0.67
2023-01-19T13:35:58.612Z,0.70
2023-01-19T13:38:28.431Z,0.50
2023-01-19T13:41:00.894Z,0.60
2023-01-19T13:43:33.429Z,0.53
2023-01-19T13:46:01.853Z,0.63
2023-01-19T13:48:30.017Z,0.50
2023-01-19T13:51:04.032Z,0.40
2023-01-19T13:53:32.454Z,0.80
2023-01-19T13:56:22.233Z,0.63
2023-01-19T13:59:07.003Z,0.47
2023-01-19T14:01:34.979Z,0.53
2023-01-19T14:04:02.980Z,0.70
2023-01-19T14:06:39.781Z,0.50
2023-01-19T14:09:17.869Z,0.87
2023-01-19T14:11:49.512Z,0.63
2023-01-19T14:14:27.503Z,0.50
2023-01-19T14:16:55.475Z,0.90
2023-01-19T14:19:23.597Z,0.60
2023-01-19T14:22:02.710Z,0.50
2023-01-19T14:24:33.020Z,0.40
2023-01-19T14:27:19.618Z,0.57
2023-01-19T14:29:50.564Z,0.50
2023-01-19T14:32:20.409Z,0.40
2023-01-19T14:34:51.138Z,0.83
2023-01-19T14:37:22.095Z,0.53
2023-01-19T14:39:52.208Z,0.40
2023-01-19T14:42:25.813Z,0.47
2023-01-19T14:44:56.093Z,0.50
2023-01-19T14:47:30.556Z,0.50
2023-01-19T14:50:02.513Z,0.70
2023-01-19T14:52:34.299Z,0.70
2023-01-19T14:55:06.641Z,0.67
2023-01-19T14:57:37.236Z,0.73
2023-01-19T15:00:17.253Z,0.57
2023-01-19T15:02:45.513Z,0.60
2023-01-19T15:05:13.514Z,0.60
2023-01-19T15:07:44.552Z,0.70
2023-01-19T15:10:18.256Z,0.53
2023-01-19T15:12:47.910Z,0.63
2023-01-19T15:15:18.871Z,0.63
2023-01-19T15:17:47.163Z,0.63
2023-01-19T15:20:17.518Z,0.60
2023-01-19T15:22:46.129Z,0.80
2023-01-19T15:25:15.968Z,0.70
2023-01-19T15:27:44.279Z,0.80
2023-01-19T15:30:19.177Z,0.70
2023-01-19T15:32:47.842Z,0.60
2023-01-19T15:35:17.676Z,0.83
2023-01-19T15:37:45.937Z,1.00
2023-01-19T15:40:14.321Z,0.77
2023-01-19T15:42:42.351Z,0.80
2023-01-19T15:45:35.121Z,0.83
2023-01-19T15:48:06.013Z,0.97
2023-01-19T15:50:34.658Z,0.80
2023-01-19T15:53:02.428Z,0.60
2023-01-19T15:55:30.342Z,1.30
2023-01-19T15:58:01.525Z,1.10
2023-01-19T16:00:32.087Z,1.70
2023-01-19T16:03:01.750Z,1.57
2023-01-19T16:05:41.783Z,1.27
2023-01-19T16:08:10.421Z,0.83
2023-01-19T16:10:38.271Z,0.87
2023-01-19T16:13:06.007Z,0.80
2023-01-19T16:15:37.292Z,0.90
2023-01-19T16:18:06.205Z,1.00
2023-01-19T16:20:34.036Z,1.00
2023-01-19T16:23:17.020Z,1.00
2023-01-19T16:25:45.088Z,0.70
2023-01-19T16:28:13.060Z,0.80
2023-01-19T16:30:42.333Z,0.73
2023-01-19T16:33:11.753Z,1.13
2023-01-19T16:35:39.673Z,0.90
2023-01-19T16:38:09.358Z,0.40
2023-01-19T16:40:37.301Z,0.50
2023-01-19T16:43:05.358Z,0.60
2023-01-19T16:45:33.223Z,1.30
2023-01-19T16:48:02.349Z,0.70
2023-01-19T16:50:30.366Z,0.70
2023-01-19T16:52:59.024Z,0.50
2023-01-19T16:55:26.862Z,0.63
2023-01-19T16:57:56.425Z,0.30
2023-01-19T17:00:24.562Z,0.40
2023-01-19T17:02:52.407Z,0.20
2023-01-19T17:05:36.725Z,0.50
2023-01-19T17:08:04.602Z,0.33
2023-01-19T17:10:32.442Z,0.20
2023-01-19T17:13:00.309Z,0.20
2023-01-19T17:15:28.170Z,0.30
2023-01-19T17:17:55.979Z,0.70
2023-01-19T17:20:23.755Z,0.60
2023-01-19T17:22:52.934Z,0.80
2023-01-19T17:25:20.656Z,0.40
2023-01-19T17:27:48.618Z,0.50
2023-01-19T17:30:17.133Z,0.47
2023-01-19T17:32:45.077Z,0.50
2023-01-19T17:35:12.870Z,0.50
2023-01-19T17:37:40.618Z,0.40
2023-01-19T17:40:11.735Z,0.33
2023-01-19T17:42:41.320Z,0.80
2023-01-19T17:45:10.849Z,0.50
2023-01-19T17:47:39.039Z,0.60
2023-01-19T17:50:07.293Z,0.30
2023-01-19T17:52:35.162Z,0.50
2023-01-19T17:55:02.976Z,0.70
2023-01-19T17:57:32.268Z,0.50
2023-01-19T17:59:59.993Z,0.70
2023-01-19T18:02:27.852Z,0.70
2023-01-19T18:04:56.321Z,0.70
2023-01-19T18:07:24.151Z,0.90
2023-01-19T18:09:55.163Z,0.90
2023-01-19T18:12:23.322Z,1.50
2023-01-19T18:14:52.494Z,2.17
2023-01-19T18:17:20.346Z,2.30
2023-01-19T18:19:49.061Z,1.80
2023-01-19T18:22:16.959Z,1.10
2023-01-19T18:24:45.686Z,1.00
2023-01-19T18:27:13.444Z,0.90
2023-01-19T18:29:41.379Z,0.87
2023-01-19T18:32:10.649Z,1.00
2023-01-19T18:34:38.918Z,0.90
2023-01-19T18:37:06.612Z,0.70
2023-01-19T18:39:34.428Z,0.90
2023-01-19T18:42:02.238Z,0.60
2023-01-19T18:44:30.067Z,0.70
2023-01-19T18:46:58.075Z,0.60
2023-01-19T18:49:27.187Z,0.73
2023-01-19T18:51:56.084Z,0.70
2023-01-19T18:54:23.892Z,0.87
2023-01-19T18:56:51.728Z,0.90
2023-01-19T18:59:19.512Z,1.03
2023-01-19T19:01:47.490Z,1.33
2023-01-19T19:04:15.313Z,1.00
2023-01-19T19:06:44.512Z,1.10
2023-01-19T19:09:12.250Z,1.30
2023-01-19T19:11:40.148Z,1.20
2023-01-19T19:14:07.898Z,1.20
2023-01-19T19:16:38.101Z,1.10
2023-01-19T19:19:08.260Z,1.10
2023-01-19T19:21:35.973Z,1.13
2023-01-19T19:24:05.236Z,1.00
2023-01-19T19:26:32.938Z,1.30
2023-01-19T19:29:01.370Z,1.33
2023-01-19T19:31:30.277Z,1.30
2023-01-19T19:33:59.646Z,1.33
2023-01-19T19:36:29.449Z,1.30
2023-01-19T19:38:57.286Z,1.20
2023-01-19T19:41:28.143Z,0.90
2023-01-19T19:43:56.527Z,1.80
2023-01-19T19:46:25.091Z,1.90
2023-01-19T19:48:53.777Z,1.90
2023-01-19T19:51:23.890Z,1.80
2023-01-19T19:53:53.064Z,1.50
2023-01-19T19:56:22.459Z,1.20
2023-01-19T19:58:53.076Z,1.00
2023-01-19T20:01:25.933Z,1.20
2023-01-19T20:03:54.926Z,1.20
2023-01-19T20:06:25.227Z,1.73
2023-01-19T20:08:54.605Z,1.10
2023-01-19T20:11:24.954Z,1.50
2023-01-19T20:13:54.698Z,1.33
2023-01-19T20:16:24.264Z,1.37
2023-01-19T20:18:54.396Z,1.80
2023-01-19T20:21:23.799Z,1.30
2023-01-19T20:23:53.051Z,1.47
2023-01-19T20:26:23.212Z,1.50
2023-01-19T20:28:51.039Z,1.53
2023-01-19T20:31:24.052Z,1.57
2023-01-19T20:33:53.071Z,1.53
2023-01-19T20:36:24.368Z,1.90
2023-01-19T20:38:52.968Z,1.80
2023-01-19T20:41:21.881Z,1.27
2023-01-19T20:43:50.116Z,1.30
2023-01-19T20:46:18.353Z,1.17
2023-01-19T20:48:50.881Z,1.77
2023-01-19T20:51:20.256Z,1.33
2023-01-19T20:53:49.200Z,1.50
2023-01-19T20:56:17.435Z,1.43
2023-01-19T20:58:45.277Z,1.10
2023-01-19T21:01:14.512Z,1.03
2023-01-19T21:03:42.725Z,1.10
2023-01-19T21:06:13.075Z,1.30
2023-01-19T21:08:41.160Z,1.27
2023-01-19T21:11:09.755Z,1.00
2023-01-19T21:13:37.987Z,0.60
2023-01-19T21:16:06.269Z,0.50
2023-01-19T21:18:34.370Z,0.80
2023-01-19T21:21:02.341Z,0.73
2023-01-19T21:23:31.526Z,0.60
2023-01-19T21:26:01.268Z,0.63
2023-01-19T21:28:29.383Z,0.40
2023-01-19T21:30:57.511Z,0.43
2023-01-19T21:33:25.446Z,0.80
2023-01-19T21:35:53.692Z,0.50
2023-01-19T21:38:22.059Z,0.47
2023-01-19T21:40:51.296Z,0.63
2023-01-19T21:43:20.135Z,0.47
2023-01-19T21:45:49.800Z,0.80
2023-01-19T21:48:18.432Z,0.83
2023-01-19T21:50:46.196Z,0.70
2023-01-19T21:53:13.976Z,0.50
2023-01-19T21:55:45.851Z,0.60
2023-01-19T21:58:15.042Z,0.60
2023-01-19T22:00:42.854Z,0.50
2023-01-19T22:03:10.721Z,0.80
2023-01-19T22:05:38.553Z,0.70
2023-01-19T22:08:07.009Z,0.30
2023-01-19T22:10:36.816Z,0.80
2023-01-19T22:13:06.740Z,0.67
2023-01-19T22:15:36.379Z,0.57
2023-01-19T22:18:04.336Z,0.77
2023-01-19T22:20:32.125Z,0.70
2023-01-19T22:22:59.939Z,0.73
2023-01-19T22:25:28.696Z,0.70
2023-01-19T22:27:58.676Z,0.90
2023-01-19T22:30:26.674Z,1.07
2023-01-19T22:32:55.935Z,1.00
2023-01-19T22:35:23.733Z,0.80
2023-01-19T22:37:51.611Z,1.07
2023-01-19T22:40:20.063Z,1.50
2023-01-19T22:42:48.139Z,1.63
2023-01-19T22:45:16.202Z,2.50
2023-01-19T22:47:44.131Z,2.27
2023-01-19T22:50:13.375Z,3.03
2023-01-19T22:52:41.514Z,3.33
2023-01-19T22:55:10.248Z,3.67
2023-01-19T22:57:38.343Z,3.80
2023-01-19T23:00:08.811Z,4.87
2023-01-19T23:02:36.820Z,4.53
2023-01-19T23:05:05.057Z,5.57
2023-01-19T23:07:34.544Z,5.47
2023-01-19T23:10:02.350Z,5.10
2023-01-19T23:12:30.123Z,5.80
2023-01-19T23:14:57.862Z,5.60
2023-01-19T23:17:25.659Z,5.90
2023-01-19T23:19:53.421Z,6.30
2023-01-19T23:22:21.194Z,5.97
2023-01-19T23:24:50.419Z,6.00
2023-01-19T23:27:18.109Z,7.00
2023-01-19T23:29:46.216Z,6.27
2023-01-19T23:32:13.936Z,6.60
2023-01-19T23:34:41.884Z,6.70
2023-01-19T23:37:09.652Z,6.63
2023-01-19T23:39:37.430Z,7.00
2023-01-19T23:42:08.181Z,6.53
2023-01-19T23:44:36.127Z,7.40
2023-01-19T23:47:03.976Z,7.77
2023-01-19T23:49:31.731Z,7.40
2023-01-19T23:51:59.559Z,7.43
2023-01-19T23:54:27.347Z,7.50
2023-01-19T23:56:55.146Z,7.10
2023-01-19T23:59:24.298Z,7.27
